Time;durP1;ratioP1;P1;durP2;ratioP2;P2;SDS_P1;SDS_P2;PMS_P1;PMS_P2;Temp;Humidity;BMP_temperature;BMP_pressure;BME280_temperature;BME280_humidity;BME280_pressure;Samples;Min_cycle;Max_cycle;Signal;HPM_P1;HPM_P2
2021/07/13 00:01:34;;;;;;;31.50;20.20;;;20.00;99.90;;;;;;6173472;28;20493;-77
2021/07/13 00:04:36;;;;;;;31.20;20.85;;;20.00;99.90;;;;;;6174270;28;20102;-77
2021/07/13 00:07:38;;;;;;;33.85;20.33;;;20.00;99.90;;;;;;6176655;28;20173;-77
2021/07/13 00:10:42;;;;;;;34.05;20.67;;;19.90;99.90;;;;;;6175945;28;20050;-77
2021/07/13 00:13:46;;;;;;;32.88;20.67;;;19.90;99.90;;;;;;6181240;28;20054;-77
2021/07/13 00:16:47;;;;;;;53.55;24.27;;;19.90;99.90;;;;;;6187422;28;20109;-76
2021/07/13 00:19:49;;;;;;;38.55;22.40;;;19.90;99.90;;;;;;6180691;28;20177;-78
2021/07/13 00:22:52;;;;;;;46.80;24.60;;;19.80;99.90;;;;;;6182330;28;20047;-77
2021/07/13 00:25:54;;;;;;;42.42;23.15;;;19.90;99.90;;;;;;6182057;28;20108;-77
2021/07/13 00:28:57;;;;;;;32.45;20.63;;;19.80;99.90;;;;;;6178433;28;20505;-76
2021/07/13 00:31:59;;;;;;;34.17;23.00;;;19.80;99.90;;;;;;6178239;28;20124;-77
2021/07/13 00:35:00;;;;;;;30.92;21.20;;;19.80;99.90;;;;;;6178703;28;20101;-77
2021/07/13 00:38:02;;;;;;;41.17;22.83;;;19.80;99.90;;;;;;6177012;28;20564;-77
2021/07/13 00:41:04;;;;;;;35.22;21.75;;;19.80;99.90;;;;;;6178221;28;20141;-77
2021/07/13 00:44:07;;;;;;;44.00;23.40;;;19.80;99.90;;;;;;6179636;28;20046;-78
2021/07/13 00:47:11;;;;;;;42.00;23.27;;;19.80;99.90;;;;;;6180758;28;20071;-77
2021/07/13 00:50:12;;;;;;;42.00;23.98;;;19.90;99.90;;;;;;6181004;28;20461;-78
2021/07/13 00:53:16;;;;;;;38.17;21.95;;;19.90;99.90;;;;;;6182349;28;20082;-77
2021/07/13 00:56:17;;;;;;;46.55;25.00;;;19.90;99.90;;;;;;6180341;28;20144;-78
2021/07/13 00:59:21;;;;;;;42.28;23.92;;;19.80;99.90;;;;;;6182264;28;20508;-77
2021/07/13 01:02:23;;;;;;;38.20;22.08;;;19.90;99.90;;;;;;6176567;28;20049;-77
2021/07/13 01:05:27;;;;;;;38.25;22.85;;;19.90;99.90;;;;;;6179711;28;20439;-77
2021/07/13 01:08:45;;;;;;;41.55;25.25;;;19.80;99.90;;;;;;6177930;28;20077;-77
2021/07/13 01:11:51;;;;;;;43.35;21.23;;;19.80;99.90;;;;;;6168792;28;20390;-76
2021/07/13 01:14:57;;;;;;;35.50;20.67;;;19.80;99.90;;;;;;6179167;28;20046;-77
2021/07/13 01:18:03;;;;;;;45.33;25.60;;;19.80;99.90;;;;;;6178435;28;20520;-77
2021/07/13 01:21:35;;;;;;;46.35;25.13;;;19.80;99.90;;;;;;6177221;28;20090;-77
2021/07/13 01:25:07;;;;;;;47.33;24.95;;;19.70;99.90;;;;;;6178386;28;20617;-77
2021/07/13 01:28:15;;;;;;;64.32;25.17;;;19.60;99.90;;;;;;6161353;28;20055;-77
2021/07/13 01:31:18;;;;;;;34.35;21.52;;;19.60;99.90;;;;;;6166238;28;20050;-77
2021/07/13 01:34:24;;;;;;;47.95;24.65;;;19.70;99.90;;;;;;6178452;28;20509;-78
2021/07/13 01:37:28;;;;;;;51.45;24.48;;;19.60;99.90;;;;;;6154790;29;20094;-76
2021/07/13 01:40:33;;;;;;;57.88;27.50;;;19.60;99.90;;;;;;6173116;28;20050;-77
2021/07/13 01:43:38;;;;;;;33.40;21.90;;;19.70;99.90;;;;;;6168772;28;20047;-78
2021/07/13 01:46:41;;;;;;;33.28;21.20;;;19.70;99.90;;;;;;6157384;28;20039;-77
2021/07/13 01:49:44;;;;;;;38.17;23.42;;;19.70;99.90;;;;;;6178107;28;20178;-77
2021/07/13 01:52:46;;;;;;;65.18;27.90;;;19.70;99.90;;;;;;6157543;28;20137;-77
2021/07/13 01:55:49;;;;;;;39.05;23.80;;;19.60;99.90;;;;;;6165706;28;20133;-77
2021/07/13 01:58:53;;;;;;;53.03;23.95;;;19.70;99.90;;;;;;6168858;28;20051;-76
2021/07/13 02:01:58;;;;;;;33.88;22.25;;;19.70;99.90;;;;;;6152121;29;20051;-76
2021/07/13 02:05:02;;;;;;;41.63;25.67;;;19.60;99.90;;;;;;6202282;28;20057;-77
2021/07/13 02:08:06;;;;;;;46.83;25.33;;;19.60;99.90;;;;;;6189389;23;20106;-77
2021/07/13 02:11:09;;;;;;;56.42;26.35;;;19.60;99.90;;;;;;6184392;28;20125;-76
2021/07/13 02:14:13;;;;;;;53.08;26.23;;;19.60;99.90;;;;;;6201103;28;20185;-77
2021/07/13 02:17:15;;;;;;;65.15;31.50;;;19.50;99.90;;;;;;6223548;28;20136;-76
2021/07/13 02:20:18;;;;;;;45.47;25.55;;;19.50;99.90;;;;;;6224353;28;20452;-77
2021/07/13 02:23:20;;;;;;;65.25;26.73;;;19.50;99.90;;;;;;6232018;28;20158;-76
2021/07/13 02:26:24;;;;;;;47.78;26.05;;;19.50;99.90;;;;;;6247719;28;20123;-76
2021/07/13 02:29:33;;;;;;;47.15;26.98;;;19.60;99.90;;;;;;6248358;28;20041;-76
2021/07/13 02:32:41;;;;;;;46.45;26.17;;;19.60;99.90;;;;;;6247588;28;20072;-76
2021/07/13 02:35:48;;;;;;;58.90;25.83;;;19.60;99.90;;;;;;6247426;28;20119;-76
2021/07/13 02:38:50;;;;;;;43.23;25.23;;;19.60;99.90;;;;;;6247745;28;20130;-76
2021/07/13 02:41:54;;;;;;;44.20;26.70;;;19.60;99.90;;;;;;6248177;28;20056;-76
2021/07/13 02:44:59;;;;;;;64.35;30.60;;;19.50;99.90;;;;;;6246911;28;20178;-76
2021/07/13 02:48:02;;;;;;;49.35;27.15;;;19.60;99.90;;;;;;6246827;28;20501;-77
2021/07/13 02:51:05;;;;;;;69.53;29.58;;;19.60;99.90;;;;;;6247543;28;20106;-77
2021/07/13 02:54:09;;;;;;;70.13;29.67;;;19.60;99.90;;;;;;6246944;28;20525;-76
2021/07/13 02:57:12;;;;;;;62.25;27.70;;;19.60;99.90;;;;;;6247097;28;20577;-76
2021/07/13 03:00:17;;;;;;;54.30;28.65;;;19.60;99.90;;;;;;6246953;28;20459;-76
2021/07/13 03:03:23;;;;;;;59.17;28.20;;;19.60;99.90;;;;;;6246773;28;20048;-76
2021/07/13 03:06:25;;;;;;;52.95;27.10;;;19.60;99.90;;;;;;6246681;28;20053;-76
2021/07/13 03:09:27;;;;;;;60.47;28.75;;;19.50;99.90;;;;;;6247344;28;20180;-76
2021/07/13 03:12:30;;;;;;;69.40;30.55;;;19.50;99.90;;;;;;6246794;28;20122;-76
2021/07/13 03:15:34;;;;;;;51.00;26.80;;;19.50;99.90;;;;;;6246664;28;20115;-77
2021/07/13 03:18:36;;;;;;;52.50;28.00;;;19.50;99.90;;;;;;6246488;28;20506;-77
2021/07/13 03:21:43;;;;;;;55.72;28.15;;;19.50;99.90;;;;;;6247349;28;20103;-77
2021/07/13 03:24:46;;;;;;;57.67;28.27;;;19.50;99.90;;;;;;6246461;28;20122;-77
2021/07/13 03:27:51;;;;;;;63.70;26.67;;;19.50;99.90;;;;;;6246207;28;20090;-77
2021/07/13 03:30:55;;;;;;;50.80;25.15;;;19.40;99.90;;;;;;6246139;28;20562;-77
2021/07/13 03:33:58;;;;;;;58.75;26.92;;;19.30;99.90;;;;;;6247178;28;20183;-76
2021/07/13 03:37:01;;;;;;;51.15;26.00;;;19.30;99.90;;;;;;6246270;28;20092;-77
2021/07/13 03:40:05;;;;;;;58.78;28.25;;;19.20;99.90;;;;;;6246139;28;20100;-77
2021/07/13 03:43:07;;;;;;;57.28;28.67;;;19.20;99.90;;;;;;6246408;28;20045;-77
2021/07/13 03:46:10;;;;;;;68.03;28.00;;;19.20;99.90;;;;;;6246025;28;20081;-76
2021/07/13 03:49:12;;;;;;;48.22;24.73;;;19.20;99.90;;;;;;6246734;28;20091;-77
2021/07/13 03:52:14;;;;;;;42.50;25.17;;;19.30;99.90;;;;;;6246049;28;20041;-76
2021/07/13 03:55:16;;;;;;;69.53;32.15;;;19.20;99.90;;;;;;6247635;28;20130;-76
2021/07/13 03:58:18;;;;;;;55.40;27.20;;;19.20;99.90;;;;;;6250907;28;20559;-77
2021/07/13 04:01:21;;;;;;;47.88;26.27;;;19.20;99.90;;;;;;6251712;28;20045;-77
2021/07/13 04:04:23;;;;;;;51.20;27.15;;;19.30;99.90;;;;;;6251181;28;20069;-77
2021/07/13 04:07:24;;;;;;;57.45;26.52;;;19.30;99.90;;;;;;6250544;28;20506;-76
2021/07/13 04:10:26;;;;;;;55.85;27.67;;;19.30;99.90;;;;;;6250760;28;20461;-77
2021/07/13 04:13:28;;;;;;;60.25;28.50;;;19.30;99.90;;;;;;6251591;28;20053;-77
2021/07/13 04:16:32;;;;;;;61.95;29.95;;;19.30;99.90;;;;;;6250433;28;20050;-77
2021/07/13 04:19:33;;;;;;;46.78;27.25;;;19.30;99.90;;;;;;6250640;28;20049;-76
2021/07/13 04:22:35;;;;;;;48.15;27.17;;;19.30;99.90;;;;;;6250661;28;20115;-76
2021/07/13 04:25:37;;;;;;;50.15;26.98;;;19.30;99.90;;;;;;6250949;28;20132;-76
2021/07/13 04:28:39;;;;;;;74.15;31.88;;;19.30;99.90;;;;;;6250301;28;20136;-77
2021/07/13 04:31:42;;;;;;;60.55;30.65;;;19.30;99.90;;;;;;6250750;28;20045;-76
2021/07/13 04:34:44;;;;;;;53.03;26.65;;;19.30;99.90;;;;;;6250090;28;20123;-77
2021/07/13 04:37:46;;;;;;;73.75;31.75;;;19.40;99.90;;;;;;6250333;28;20127;-76
2021/07/13 04:40:48;;;;;;;65.55;32.25;;;19.40;99.90;;;;;;6250005;28;20414;-77
2021/07/13 04:43:50;;;;;;;62.22;31.65;;;19.50;99.90;;;;;;6250234;28;20128;-76
2021/07/13 04:46:54;;;;;;;87.75;35.83;;;19.50;99.90;;;;;;6249711;28;20128;-77
2021/07/13 04:49:56;;;;;;;70.18;32.63;;;19.60;99.90;;;;;;6250673;28;20108;-77
2021/07/13 04:52:58;;;;;;;65.00;32.42;;;19.60;99.90;;;;;;6249847;28;20465;-77
2021/07/13 04:56:00;;;;;;;62.05;31.02;;;19.60;99.90;;;;;;6249413;28;20091;-77
2021/07/13 04:59:01;;;;;;;55.80;30.45;;;19.70;99.90;;;;;;6250033;28;20097;-77
2021/07/13 05:02:05;;;;;;;51.42;29.30;;;19.70;99.90;;;;;;6249634;28;20060;-77
2021/07/13 05:05:10;;;;;;;73.43;33.95;;;19.70;99.90;;;;;;6250535;28;20135;-77
2021/07/13 05:08:12;;;;;;;71.90;36.08;;;19.80;99.90;;;;;;6248801;28;20049;-77
2021/07/13 05:11:14;;;;;;;55.30;29.75;;;19.80;99.90;;;;;;6249738;28;20148;-77
2021/07/13 05:14:15;;;;;;;61.83;29.38;;;19.80;99.90;;;;;;6249483;28;20053;-77
2021/07/13 05:17:18;;;;;;;65.18;29.35;;;19.80;99.90;;;;;;6249368;28;20566;-76
2021/07/13 05:20:20;;;;;;;43.97;24.30;;;19.80;99.90;;;;;;6249401;28;20057;-77
2021/07/13 05:23:22;;;;;;;51.72;27.55;;;19.80;99.90;;;;;;6249266;28;20187;-77
2021/07/13 05:26:25;;;;;;;55.72;29.38;;;19.90;99.90;;;;;;6249224;28;20123;-77
2021/07/13 05:29:27;;;;;;;70.35;32.58;;;19.90;99.90;;;;;;6249341;28;20049;-77
2021/07/13 05:32:31;;;;;;;61.42;30.45;;;19.90;99.90;;;;;;6249013;28;20048;-77
2021/07/13 05:35:32;;;;;;;62.42;28.02;;;19.90;99.90;;;;;;6248914;28;20552;-77
2021/07/13 05:38:34;;;;;;;50.25;27.48;;;19.80;99.90;;;;;;6248709;28;20072;-76
2021/07/13 05:41:37;;;;;;;62.90;29.42;;;19.80;99.90;;;;;;6251782;28;20422;-76
2021/07/13 05:44:39;;;;;;;52.58;26.02;;;19.80;99.90;;;;;;6250302;28;20128;-76
2021/07/13 05:47:42;;;;;;;52.92;26.15;;;19.90;99.90;;;;;;6248509;28;20046;-77
2021/07/13 05:50:44;;;;;;;62.53;28.40;;;19.90;99.90;;;;;;6248679;28;20124;-77
2021/07/13 05:53:46;;;;;;;60.78;28.35;;;19.90;99.90;;;;;;6248858;28;20584;-76
2021/07/13 05:56:48;;;;;;;59.50;27.20;;;19.90;99.90;;;;;;6247886;28;20120;-77
2021/07/13 05:59:50;;;;;;;67.15;29.58;;;19.90;99.90;;;;;;6248292;28;20038;-76
2021/07/13 06:02:53;;;;;;;45.40;27.38;;;19.90;99.90;;;;;;6248030;28;20046;-76
2021/07/13 06:05:55;;;;;;;55.25;25.58;;;19.90;99.90;;;;;;6215895;28;20127;-77
2021/07/13 06:08:57;;;;;;;39.00;24.00;;;19.90;99.90;;;;;;6223240;28;20085;-77
2021/07/13 06:11:59;;;;;;;40.22;23.30;;;19.90;99.90;;;;;;6223282;28;20093;-77
2021/07/13 06:15:01;;;;;;;42.63;23.30;;;19.90;99.90;;;;;;6223117;28;20140;-76
2021/07/13 06:18:05;;;;;;;41.60;24.13;;;19.90;99.90;;;;;;6222313;28;20602;-76
2021/07/13 06:21:08;;;;;;;42.42;20.17;;;19.90;99.90;;;;;;6223709;28;20078;-76
2021/07/13 06:24:10;;;;;;;22.73;14.93;;;19.80;99.90;;;;;;6223401;28;20117;-76
2021/07/13 06:27:12;;;;;;;17.70;13.07;;;19.60;99.90;;;;;;6223062;28;20049;-76
2021/07/13 06:30:17;;;;;;;19.25;13.27;;;19.40;99.90;;;;;;6223043;28;20403;-77
2021/07/13 06:33:20;;;;;;;29.10;13.70;;;19.20;99.90;;;;;;6223162;28;20049;-76
2021/07/13 06:36:22;;;;;;;24.88;12.68;;;19.10;99.90;;;;;;6222773;28;20711;-77
2021/07/13 06:39:24;;;;;;;26.17;14.07;;;19.00;99.90;;;;;;6222529;28;20084;-77
2021/07/13 06:42:27;;;;;;;20.02;13.48;;;18.90;99.90;;;;;;6222598;28;20525;-77
2021/07/13 06:45:29;;;;;;;20.33;12.82;;;18.80;99.90;;;;;;6223081;28;20050;-77
2021/07/13 06:48:32;;;;;;;17.73;12.32;;;18.70;99.90;;;;;;6222281;28;20097;-76
2021/07/13 06:51:34;;;;;;;16.02;11.27;;;18.60;99.90;;;;;;6222854;28;20181;-76
2021/07/13 06:54:36;;;;;;;18.30;11.30;;;18.60;99.90;;;;;;6222733;28;20038;-76
2021/07/13 06:57:38;;;;;;;12.00;9.32;;;18.50;99.90;;;;;;6219604;28;20046;-76
2021/07/13 07:00:40;;;;;;;11.40;9.00;;;18.50;99.90;;;;;;6222180;28;20503;-76
2021/07/13 07:03:43;;;;;;;13.57;7.97;;;18.50;99.90;;;;;;6222245;28;20124;-77
2021/07/13 07:06:45;;;;;;;12.38;6.93;;;18.50;99.90;;;;;;6222001;28;20077;-76
2021/07/13 07:09:46;;;;;;;14.90;7.57;;;18.40;99.90;;;;;;6222543;28;20054;-77
2021/07/13 07:12:50;;;;;;;14.45;7.35;;;18.40;99.90;;;;;;6222235;28;20188;-76
2021/07/13 07:15:51;;;;;;;15.13;7.85;;;18.40;99.90;;;;;;6221690;28;20137;-77
2021/07/13 07:18:55;;;;;;;12.50;8.57;;;18.40;99.90;;;;;;6222463;28;20082;-76
2021/07/13 07:21:56;;;;;;;14.38;7.82;;;18.40;99.90;;;;;;6222788;28;20104;-76
2021/07/13 07:24:59;;;;;;;13.93;7.13;;;18.30;99.90;;;;;;6222107;28;20180;-77
2021/07/13 07:28:02;;;;;;;8.70;6.15;;;18.30;99.90;;;;;;6221324;28;20050;-77
2021/07/13 07:31:04;;;;;;;6.72;5.57;;;18.30;99.90;;;;;;6221898;28;20096;-76
2021/07/13 07:34:07;;;;;;;7.80;5.40;;;18.30;99.90;;;;;;6222022;28;20127;-76
2021/07/13 07:37:09;;;;;;;8.05;4.80;;;18.30;99.90;;;;;;6222069;28;20077;-76
2021/07/13 07:40:12;;;;;;;7.13;4.55;;;18.30;99.90;;;;;;6221860;28;20151;-76
2021/07/13 07:43:14;;;;;;;6.78;3.85;;;18.20;99.90;;;;;;6221828;28;20104;-76
2021/07/13 07:46:16;;;;;;;5.93;4.28;;;18.20;99.90;;;;;;6221587;28;20137;-76
2021/07/13 07:49:19;;;;;;;7.20;4.18;;;18.20;99.90;;;;;;6222480;28;20184;-77
2021/07/13 07:52:21;;;;;;;9.02;5.07;;;18.10;99.90;;;;;;6221761;28;20132;-77
2021/07/13 07:55:26;;;;;;;4.82;3.60;;;18.10;99.90;;;;;;6221773;28;20050;-77
2021/07/13 07:58:28;;;;;;;5.32;3.05;;;18.10;99.90;;;;;;6221406;28;20065;-77
2021/07/13 08:01:30;;;;;;;3.22;2.10;;;18.10;99.90;;;;;;6222287;28;20128;-76
2021/07/13 08:04:33;;;;;;;2.75;1.65;;;18.00;99.90;;;;;;6221349;28;20042;-77
2021/07/13 08:07:35;;;;;;;3.63;1.27;;;17.90;99.90;;;;;;6203936;23;1161407;-77
2021/07/13 08:10:38;;;;;;;1.83;1.42;;;17.70;99.90;;;;;;6220628;28;20045;-77
2021/07/13 08:13:39;;;;;;;2.35;1.15;;;17.60;99.90;;;;;;6221050;28;20142;-77
2021/07/13 08:16:43;;;;;;;1.42;1.10;;;17.50;99.90;;;;;;6220210;28;20575;-77
2021/07/13 08:19:46;;;;;;;1.77;1.20;;;17.30;99.90;;;;;;6220898;28;20048;-76
2021/07/13 08:22:49;;;;;;;1.50;0.90;;;17.10;99.90;;;;;;6209062;28;20180;-76
2021/07/13 08:25:51;;;;;;;1.20;1.10;;;17.10;99.90;;;;;;6221429;28;20050;-76
2021/07/13 08:28:53;;;;;;;3.15;1.05;;;17.00;99.90;;;;;;6221306;28;20529;-77
2021/07/13 08:31:59;;;;;;;2.20;0.90;;;16.90;99.90;;;;;;6221401;28;20049;-77
2021/07/13 08:35:02;;;;;;;3.75;1.40;;;16.90;99.90;;;;;;6221453;28;20045;-76
2021/07/13 08:38:04;;;;;;;4.55;2.40;;;16.80;99.90;;;;;;6221051;28;20187;-77
2021/07/13 08:41:06;;;;;;;3.50;1.55;;;16.70;99.90;;;;;;6222884;28;20082;-77
2021/07/13 08:44:08;;;;;;;2.92;1.30;;;16.70;99.90;;;;;;6225726;28;20120;-77
2021/07/13 08:47:14;;;;;;;2.15;1.80;;;16.70;99.90;;;;;;6225127;28;20068;-77
2021/07/13 08:50:18;;;;;;;2.92;1.98;;;16.60;99.90;;;;;;6225901;28;20042;-77
2021/07/13 08:53:20;;;;;;;2.72;1.80;;;16.60;99.90;;;;;;6226298;28;20054;-77
2021/07/13 08:56:22;;;;;;;2.88;2.33;;;16.50;99.90;;;;;;6225142;28;20128;-77
2021/07/13 08:59:24;;;;;;;3.55;2.38;;;16.50;99.90;;;;;;6225253;28;20100;-77
2021/07/13 09:02:26;;;;;;;2.70;2.20;;;16.50;99.90;;;;;;6225622;28;20096;-77
2021/07/13 09:05:29;;;;;;;2.70;2.13;;;16.40;99.90;;;;;;6225240;28;20479;-76
2021/07/13 09:08:32;;;;;;;3.38;1.90;;;16.40;99.90;;;;;;6224720;28;20052;-76
2021/07/13 09:11:34;;;;;;;3.97;2.10;;;16.40;99.90;;;;;;6225285;28;20103;-76
2021/07/13 09:14:54;;;;;;;3.85;1.80;;;16.40;99.90;;;;;;6225034;28;20048;-76
2021/07/13 09:17:56;;;;;;;3.15;2.13;;;16.30;99.90;;;;;;6225549;28;20054;-77
2021/07/13 09:21:13;;;;;;;2.55;2.00;;;16.30;99.90;;;;;;6225310;28;20128;-77
2021/07/13 09:24:17;;;;;;;2.95;1.75;;;16.20;99.90;;;;;;6211456;28;20126;-78
2021/07/13 09:27:19;;;;;;;3.35;2.40;;;16.20;99.90;;;;;;6176388;28;20051;-77
2021/07/13 09:30:20;;;;;;;2.95;1.95;;;16.10;99.90;;;;;;6175876;28;20174;-77
2021/07/13 09:33:23;;;;;;;2.75;2.03;;;16.10;99.90;;;;;;6176748;28;20051;-76
2021/07/13 09:36:27;;;;;;;2.25;1.80;;;16.10;99.90;;;;;;6175617;28;20138;-75
2021/07/13 09:39:28;;;;;;;2.53;1.70;;;16.10;99.90;;;;;;6175942;28;20189;-76
2021/07/13 09:42:32;;;;;;;1.80;1.70;;;16.20;99.90;;;;;;6175962;28;20101;-77
2021/07/13 09:45:34;;;;;;;3.92;1.85;;;16.20;99.90;;;;;;6176129;28;20050;-76
2021/07/13 09:48:36;;;;;;;2.55;1.92;;;16.20;99.90;;;;;;6176317;28;20070;-78
2021/07/13 09:51:40;;;;;;;2.20;1.88;;;16.20;99.90;;;;;;6175678;28;20175;-76
2021/07/13 09:54:44;;;;;;;18.92;1.80;;;16.30;99.90;;;;;;6174890;28;20124;-77
2021/07/13 09:57:46;;;;;;;2.67;1.35;;;16.30;99.90;;;;;;6175753;28;20050;-78
2021/07/13 10:00:50;;;;;;;1.52;1.10;;;16.30;99.90;;;;;;6175482;28;20066;-77
2021/07/13 10:03:52;;;;;;;3.50;1.48;;;16.40;99.90;;;;;;6175503;28;20079;-77
2021/07/13 10:06:59;;;;;;;1.00;0.90;;;16.40;99.90;;;;;;6175038;28;20149;-76
2021/07/13 10:10:01;;;;;;;2.10;1.10;;;16.40;99.90;;;;;;6175420;28;20050;-77
2021/07/13 10:13:03;;;;;;;4.50;1.23;;;16.30;99.90;;;;;;6175507;28;20057;-77
2021/07/13 10:16:05;;;;;;;1.05;0.95;;;16.30;99.90;;;;;;6174862;28;20526;-77
2021/07/13 10:19:09;;;;;;;2.83;1.42;;;16.30;99.90;;;;;;6174840;28;20050;-76
2021/07/13 10:22:14;;;;;;;1.38;1.00;;;16.30;99.90;;;;;;6174894;28;20050;-76
2021/07/13 10:25:16;;;;;;;1.27;0.80;;;16.30;99.90;;;;;;6175251;28;20047;-76
2021/07/13 10:28:21;;;;;;;1.98;1.40;;;16.30;99.90;;;;;;6174458;28;20100;-76
2021/07/13 10:31:36;;;;;;;4.30;1.42;;;16.30;99.90;;;;;;6174800;28;20054;-76
2021/07/13 10:34:49;;;;;;;1.48;1.23;;;16.30;99.90;;;;;;6174296;28;20042;-76
2021/07/13 10:37:53;;;;;;;1.52;1.10;;;16.30;99.90;;;;;;6175576;28;20054;-78
2021/07/13 10:40:55;;;;;;;4.65;1.30;;;16.20;99.90;;;;;;6174834;28;20038;-78
2021/07/13 10:43:57;;;;;;;2.05;1.45;;;16.30;99.90;;;;;;6178209;28;20049;-77
2021/07/13 10:47:21;;;;;;;2.65;2.03;;;16.30;99.90;;;;;;6202943;28;20049;-76
2021/07/13 10:50:53;;;;;;;4.32;1.60;;;16.40;99.90;;;;;;6222607;28;20573;-77
2021/07/13 10:54:06;;;;;;;2.40;1.88;;;16.40;99.90;;;;;;6223341;28;20057;-76
2021/07/13 10:57:25;;;;;;;1.65;1.33;;;16.50;99.90;;;;;;6222495;28;20052;-77
2021/07/13 11:01:00;;;;;;;1.83;1.25;;;16.60;99.90;;;;;;6184080;28;20047;-76
2021/07/13 11:04:07;;;;;;;3.88;1.67;;;16.60;99.90;;;;;;6188405;28;20194;-77
2021/07/13 11:07:09;;;;;;;2.13;1.33;;;16.70;99.90;;;;;;6197145;28;20054;-76
2021/07/13 11:10:22;;;;;;;2.30;1.70;;;16.60;99.90;;;;;;6197360;28;20058;-77
2021/07/13 11:13:24;;;;;;;1.50;1.33;;;16.50;99.90;;;;;;6197522;28;20582;-77
2021/07/13 11:16:28;;;;;;;2.85;2.25;;;16.40;99.90;;;;;;6197054;28;20050;-77
2021/07/13 11:19:33;;;;;;;3.97;1.42;;;16.40;99.90;;;;;;6197254;28;20050;-76
2021/07/13 11:22:36;;;;;;;2.45;1.52;;;16.50;99.90;;;;;;6196906;28;20061;-76
2021/07/13 11:25:39;;;;;;;1.70;1.60;;;16.60;99.90;;;;;;6196941;28;20076;-76
2021/07/13 11:28:45;;;;;;;3.50;1.73;;;16.70;99.90;;;;;;6196401;28;20523;-77
2021/07/13 11:31:50;;;;;;;2.67;1.55;;;16.90;99.90;;;;;;6196935;28;20088;-78
2021/07/13 11:34:51;;;;;;;1.50;1.40;;;17.00;99.90;;;;;;6197418;28;20046;-77
2021/07/13 11:37:57;;;;;;;1.70;1.60;;;17.10;99.90;;;;;;6197204;28;20056;-77
2021/07/13 11:41:10;;;;;;;2.38;1.63;;;17.10;99.90;;;;;;6196427;28;20065;-78
2021/07/13 11:44:13;;;;;;;3.67;1.70;;;17.10;99.90;;;;;;6197000;28;20052;-78
2021/07/13 11:47:17;;;;;;;1.95;1.75;;;17.10;99.90;;;;;;6160629;28;20047;-79
2021/07/13 11:50:19;;;;;;;1.95;1.80;;;17.10;99.90;;;;;;6148392;29;20074;-78
2021/07/13 11:53:22;;;;;;;1.52;1.25;;;17.00;99.90;;;;;;6149079;29;20564;-78
2021/07/13 11:56:26;;;;;;;1.88;1.70;;;17.00;99.90;;;;;;6186232;28;20057;-78
2021/07/13 11:59:30;;;;;;;1.77;1.67;;;17.10;99.90;;;;;;6196907;28;20061;-78
2021/07/13 12:02:32;;;;;;;1.98;1.77;;;17.00;99.90;;;;;;6196463;28;20046;-78
2021/07/13 12:05:34;;;;;;;2.42;1.58;;;17.10;99.90;;;;;;6197005;28;20046;-78
2021/07/13 12:08:36;;;;;;;1.45;1.35;;;17.00;99.90;;;;;;6196227;28;20579;-78
2021/07/13 12:11:42;;;;;;;1.65;1.55;;;17.10;99.90;;;;;;6196104;28;20177;-78
2021/07/13 12:14:46;;;;;;;2.13;1.60;;;17.00;99.90;;;;;;6196840;28;20195;-78
2021/07/13 12:17:48;;;;;;;2.10;1.30;;;17.10;99.90;;;;;;6200226;28;20101;-78
2021/07/13 12:20:50;;;;;;;2.88;1.77;;;17.00;99.90;;;;;;6201375;28;20124;-75
2021/07/13 12:23:56;;;;;;;2.47;1.40;;;17.00;99.90;;;;;;6200915;28;20050;-76
2021/07/13 12:27:00;;;;;;;1.63;1.50;;;17.00;99.90;;;;;;6200738;28;20534;-75
2021/07/13 12:30:09;;;;;;;2.97;1.52;;;17.00;99.90;;;;;;6200843;28;20046;-76
2021/07/13 12:33:12;;;;;;;2.42;2.22;;;17.00;99.90;;;;;;6201072;28;20684;-76
2021/07/13 12:36:24;;;;;;;2.40;2.10;;;17.10;99.90;;;;;;6200217;28;20133;-76
2021/07/13 12:39:26;;;;;;;3.53;1.70;;;17.10;99.90;;;;;;6200922;28;20093;-76
2021/07/13 12:42:31;;;;;;;2.22;2.03;;;17.10;99.90;;;;;;6200731;28;20046;-76
2021/07/13 12:45:35;;;;;;;3.58;1.92;;;17.10;99.90;;;;;;6201169;28;20053;-75
2021/07/13 12:48:38;;;;;;;2.38;1.92;;;17.10;99.90;;;;;;6183855;28;20552;-75
2021/07/13 12:51:40;;;;;;;5.95;3.65;;;17.10;99.90;;;;;;6175957;28;20266;-76
2021/07/13 12:54:58;;;;;;;1.75;1.60;;;17.10;99.90;;;;;;6175987;28;20097;-76
2021/07/13 12:58:09;;;;;;;2.35;2.15;;;17.10;99.90;;;;;;6176248;28;20077;-76
2021/07/13 13:01:16;;;;;;;4.88;2.03;;;17.10;99.90;;;;;;6175974;28;20386;-76
2021/07/13 13:04:19;;;;;;;2.30;2.00;;;17.10;99.90;;;;;;6175744;28;20050;-76
2021/07/13 13:07:21;;;;;;;2.63;2.00;;;17.10;99.90;;;;;;6175065;28;20070;-75
2021/07/13 13:10:27;;;;;;;4.05;2.30;;;17.10;99.90;;;;;;6175782;28;20737;-76
2021/07/13 13:13:33;;;;;;;1.88;1.63;;;17.20;99.90;;;;;;6193506;28;20054;-75
2021/07/13 13:16:38;;;;;;;1.80;1.70;;;17.20;99.90;;;;;;6223631;28;20177;-76
2021/07/13 13:19:41;;;;;;;2.13;1.85;;;17.20;99.90;;;;;;6223814;28;20045;-75
2021/07/13 13:22:48;;;;;;;2.33;2.13;;;17.20;99.90;;;;;;6223642;28;20656;-75
2021/07/13 13:25:50;;;;;;;1.90;1.77;;;17.30;99.90;;;;;;6223983;28;20185;-75
2021/07/13 13:28:54;;;;;;;3.13;1.75;;;17.30;99.90;;;;;;6223516;28;20100;-76
2021/07/13 13:31:55;;;;;;;2.67;1.70;;;17.30;99.90;;;;;;6223509;28;20181;-75
2021/07/13 13:34:57;;;;;;;2.83;1.80;;;17.40;99.90;;;;;;6223748;28;20046;-76
2021/07/13 13:38:07;;;;;;;2.10;1.83;;;17.40;99.90;;;;;;6223602;28;20050;-76
2021/07/13 13:41:10;;;;;;;3.05;2.10;;;17.50;99.90;;;;;;6224167;28;20127;-76
2021/07/13 13:44:14;;;;;;;2.60;2.25;;;17.50;99.90;;;;;;6223673;28;20053;-75
2021/07/13 13:47:16;;;;;;;2.70;2.20;;;17.70;99.90;;;;;;6220172;28;20189;-75
2021/07/13 13:50:18;;;;;;;4.07;3.00;;;17.90;99.90;;;;;;6176071;28;20138;-76
2021/07/13 13:53:20;;;;;;;1.92;1.83;;;18.10;99.90;;;;;;6175398;28;20488;-76
2021/07/13 13:56:24;;;;;;;2.33;1.95;;;18.20;99.90;;;;;;6174440;28;20524;-76
2021/07/13 13:59:27;;;;;;;3.10;1.77;;;18.30;99.90;;;;;;6174423;28;20532;-76
2021/07/13 14:02:29;;;;;;;2.55;1.60;;;18.40;99.90;;;;;;6174731;28;20068;-75
2021/07/13 14:05:31;;;;;;;1.30;1.20;;;18.50;99.90;;;;;;6175052;28;20109;-75
2021/07/13 14:08:34;;;;;;;2.13;1.50;;;18.70;99.90;;;;;;6229291;23;20503;-75
2021/07/13 14:11:36;;;;;;;1.63;1.30;;;19.00;99.90;;;;;;6222500;28;20118;-75
2021/07/13 14:14:40;;;;;;;1.10;1.00;;;19.10;99.90;;;;;;6223295;28;20107;-75
2021/07/13 14:17:43;;;;;;;1.63;1.52;;;19.20;99.90;;;;;;6222519;28;20049;-74
2021/07/13 14:20:45;;;;;;;1.15;1.02;;;19.20;99.90;;;;;;6222693;28;20132;-75
2021/07/13 14:23:47;;;;;;;1.38;1.20;;;19.00;99.90;;;;;;6225264;28;20529;-75
2021/07/13 14:26:49;;;;;;;1.67;1.00;;;18.90;99.90;;;;;;6180799;28;20482;-74
2021/07/13 14:29:52;;;;;;;1.65;1.48;;;18.80;99.90;;;;;;6198894;28;20490;-74
2021/07/13 14:32:54;;;;;;;1.52;0.93;;;18.70;99.90;;;;;;6197939;28;20208;-75
2021/07/13 14:35:57;;;;;;;1.52;1.30;;;18.70;99.90;;;;;;6197862;28;20144;-75
2021/07/13 14:38:58;;;;;;;1.23;1.05;;;18.60;99.90;;;;;;6197251;28;20177;-75
2021/07/13 14:42:00;;;;;;;1.38;1.25;;;18.60;99.90;;;;;;6198216;28;20078;-75
2021/07/13 14:45:04;;;;;;;1.52;1.13;;;18.70;99.90;;;;;;6198304;28;20057;-75
2021/07/13 14:48:06;;;;;;;2.45;1.25;;;18.70;99.90;;;;;;6197035;28;20054;-75
2021/07/13 14:51:08;;;;;;;2.63;1.50;;;18.80;99.90;;;;;;6172295;28;20058;-74
2021/07/13 14:54:10;;;;;;;1.20;1.00;;;18.90;99.90;;;;;;6152124;28;20078;-75
2021/07/13 14:57:12;;;;;;;2.90;1.60;;;19.10;99.90;;;;;;6173935;28;20154;-75
2021/07/13 15:00:16;;;;;;;1.13;1.02;;;19.30;99.90;;;;;;6172624;28;20632;-75
2021/07/13 15:03:19;;;;;;;1.30;1.20;;;19.50;99.90;;;;;;6173188;28;20053;-75
2021/07/13 15:06:20;;;;;;;4.18;1.25;;;19.50;99.90;;;;;;6172863;28;20476;-75
2021/07/13 15:09:22;;;;;;;1.02;0.93;;;19.50;99.90;;;;;;6173219;28;20082;-75
2021/07/13 15:12:24;;;;;;;1.15;1.05;;;19.50;99.90;;;;;;6172981;28;20141;-75
2021/07/13 15:15:27;;;;;;;0.80;0.80;;;19.60;99.90;;;;;;6221265;28;20057;-75
2021/07/13 15:18:29;;;;;;;1.77;1.20;;;19.60;99.90;;;;;;6220967;28;20077;-75
2021/07/13 15:21:31;;;;;;;1.00;0.88;;;19.50;99.90;;;;;;6222577;28;20184;-75
2021/07/13 15:24:33;;;;;;;1.20;0.90;;;19.50;99.90;;;;;;6221330;28;20115;-75
2021/07/13 15:27:35;;;;;;;1.73;1.20;;;19.50;99.90;;;;;;6221060;28;20046;-75
2021/07/13 15:30:38;;;;;;;1.13;0.68;;;19.60;99.90;;;;;;6221412;28;20114;-75
2021/07/13 15:33:40;;;;;;;3.38;1.05;;;19.70;99.90;;;;;;6221539;28;20101;-75
2021/07/13 15:36:41;;;;;;;1.90;1.27;;;19.90;99.90;;;;;;6220674;28;20133;-75
2021/07/13 15:39:43;;;;;;;2.95;1.20;;;20.20;99.90;;;;;;6221169;28;20116;-75
2021/07/13 15:42:45;;;;;;;1.08;1.00;;;20.30;99.90;;;;;;6220886;28;20069;-75
2021/07/13 15:45:49;;;;;;;2.28;0.80;;;20.40;99.90;;;;;;6221524;28;20135;-74